createdAt,value
2023-02-27T00:00:01.080Z,30.00
2023-02-27T00:02:27.770Z,32.50
2023-02-27T00:04:54.700Z,33.10
2023-02-27T00:07:25.991Z,31.70
2023-02-27T00:09:53.323Z,39.10
2023-02-27T00:12:20.280Z,41.20
2023-02-27T00:14:47.033Z,45.40
2023-02-27T00:17:13.745Z,51.40
2023-02-27T00:19:40.469Z,59.90
2023-02-27T00:22:07.211Z,67.90
2023-02-27T00:26:59.327Z,76.60
2023-02-27T00:29:26.037Z,78.20
2023-02-27T00:31:52.844Z,76.70
2023-02-27T00:34:19.590Z,82.60
2023-02-27T00:36:46.373Z,88.10
2023-02-27T00:39:13.181Z,89.10
2023-02-27T00:41:40.162Z,91.60
2023-02-27T00:44:06.858Z,90.50
2023-02-27T00:46:33.589Z,89.60
2023-02-27T00:49:00.300Z,91.60
2023-02-27T00:51:27.350Z,93.60
2023-02-27T00:53:54.242Z,94.70
2023-02-27T00:56:21.010Z,98.50
2023-02-27T00:58:47.805Z,99.90
2023-02-27T01:01:15.470Z,99.90
2023-02-27T01:03:42.354Z,99.90
2023-02-27T01:06:09.111Z,99.90
2023-02-27T01:08:35.797Z,99.90
2023-02-27T01:11:02.538Z,99.90
2023-02-27T01:13:29.379Z,99.60
2023-02-27T01:15:56.134Z,99.20
2023-02-27T01:18:22.997Z,99.50
2023-02-27T01:20:54.801Z,99.90
2023-02-27T01:23:22.863Z,99.90
2023-02-27T01:25:50.043Z,99.90
2023-02-27T01:28:17.107Z,99.90
2023-02-27T01:30:44.009Z,99.90
2023-02-27T01:33:10.786Z,99.90
2023-02-27T01:35:37.495Z,99.90
2023-02-27T01:38:04.218Z,99.90
2023-02-27T01:40:36.160Z,99.90
2023-02-27T01:43:03.396Z,99.90
2023-02-27T01:45:40.355Z,99.90
2023-02-27T01:48:13.594Z,99.90
2023-02-27T01:50:49.452Z,99.90
2023-02-27T01:53:17.727Z,99.90
2023-02-27T01:55:46.036Z,99.90
2023-02-27T01:58:13.720Z,99.90
2023-02-27T02:00:41.496Z,99.90
2023-02-27T02:03:28.451Z,99.90
2023-02-27T02:05:57.122Z,99.90
2023-02-27T02:08:27.212Z,99.90
2023-02-27T02:10:55.676Z,99.90
2023-02-27T02:13:22.860Z,99.90
2023-02-27T02:16:06.093Z,99.90
2023-02-27T02:18:49.712Z,99.90
2023-02-27T02:21:32.852Z,99.90
2023-02-27T02:24:08.091Z,99.90
2023-02-27T02:26:45.452Z,99.90
2023-02-27T02:29:33.124Z,99.90
2023-02-27T02:32:21.545Z,99.90
2023-02-27T02:34:54.204Z,99.90
2023-02-27T02:37:59.020Z,99.90
2023-02-27T02:40:51.474Z,99.90
2023-02-27T02:43:50.520Z,99.90
2023-02-27T02:46:41.944Z,99.90
2023-02-27T02:49:14.654Z,99.90
2023-02-27T02:52:01.821Z,99.90
2023-02-27T02:54:38.445Z,99.90
2023-02-27T02:57:07.952Z,99.90
2023-02-27T02:59:49.455Z,99.90
2023-02-27T03:02:20.571Z,99.90
2023-02-27T03:05:08.413Z,99.90
2023-02-27T03:07:53.928Z,99.90
2023-02-27T03:10:30.139Z,99.90
2023-02-27T03:13:09.958Z,99.90
2023-02-27T03:15:49.496Z,99.90
2023-02-27T03:18:25.081Z,99.90
2023-02-27T03:21:01.144Z,99.90
2023-02-27T03:23:44.283Z,99.90
2023-02-27T03:26:14.294Z,99.90
2023-02-27T03:28:56.039Z,99.90
2023-02-27T03:31:32.339Z,99.90
2023-02-27T03:34:08.631Z,99.90
2023-02-27T03:36:45.233Z,99.90
2023-02-27T03:39:36.902Z,99.90
2023-02-27T03:42:18.641Z,99.90
2023-02-27T03:45:00.484Z,99.90
2023-02-27T03:47:28.194Z,99.90
2023-02-27T03:49:55.876Z,99.90
2023-02-27T03:52:25.580Z,99.90
2023-02-27T03:55:04.193Z,99.90
2023-02-27T03:57:31.848Z,99.90
2023-02-27T03:59:59.170Z,99.90
2023-02-27T04:02:27.477Z,99.90
2023-02-27T04:04:54.238Z,99.90
2023-02-27T04:07:28.773Z,99.90
2023-02-27T04:10:07.276Z,99.90
2023-02-27T04:12:52.760Z,99.90
2023-02-27T04:15:53.080Z,99.90
2023-02-27T04:18:38.477Z,99.90
2023-02-27T04:21:05.152Z,99.90
2023-02-27T04:23:38.309Z,99.90
2023-02-27T04:26:29.784Z,99.90
2023-02-27T04:29:14.300Z,99.90
2023-02-27T04:31:59.626Z,99.90
2023-02-27T04:34:31.611Z,99.90
2023-02-27T04:37:12.689Z,99.90
2023-02-27T04:39:51.920Z,99.90
2023-02-27T04:42:24.215Z,99.90
2023-02-27T04:44:54.381Z,99.90
2023-02-27T04:47:23.069Z,99.90
2023-02-27T04:49:59.211Z,99.90
2023-02-27T04:52:35.809Z,99.90
2023-02-27T04:55:13.345Z,99.90
2023-02-27T04:57:58.505Z,99.90
2023-02-27T05:00:27.183Z,99.90
2023-02-27T05:03:00.136Z,99.90
2023-02-27T05:05:30.913Z,99.90
2023-02-27T05:08:07.066Z,99.90
2023-02-27T05:10:51.625Z,99.90
2023-02-27T05:13:22.618Z,99.90
2023-02-27T05:15:56.243Z,99.90
2023-02-27T05:18:24.511Z,99.90
2023-02-27T05:21:16.865Z,99.90
2023-02-27T05:24:03.774Z,99.90
2023-02-27T05:26:44.937Z,99.90
2023-02-27T05:29:28.292Z,99.90
2023-02-27T05:32:03.680Z,99.90
2023-02-27T05:34:51.107Z,99.90
2023-02-27T05:37:28.177Z,99.90
2023-02-27T05:39:54.953Z,99.90
2023-02-27T05:42:34.509Z,99.90
2023-02-27T05:45:09.128Z,99.90
2023-02-27T05:47:40.079Z,99.90
2023-02-27T05:50:16.780Z,99.90
2023-02-27T05:52:45.861Z,99.90
2023-02-27T05:55:18.879Z,99.90
2023-02-27T05:57:53.208Z,99.90
2023-02-27T06:00:35.418Z,99.90
2023-02-27T06:03:02.212Z,99.90
2023-02-27T06:05:29.324Z,99.90
2023-02-27T06:07:56.044Z,99.90
2023-02-27T06:10:22.878Z,99.90
2023-02-27T06:12:50.293Z,99.90
2023-02-27T06:15:18.756Z,99.90
2023-02-27T06:17:45.624Z,99.90
2023-02-27T06:20:12.808Z,99.90
2023-02-27T06:22:39.664Z,99.90
2023-02-27T06:25:06.940Z,99.90
2023-02-27T06:27:33.730Z,99.90
2023-02-27T06:30:00.681Z,99.90
2023-02-27T06:32:28.065Z,99.90
2023-02-27T06:34:54.813Z,99.90
2023-02-27T06:37:21.929Z,99.90
2023-02-27T06:39:48.657Z,99.90
2023-02-27T06:42:15.935Z,99.90
2023-02-27T06:44:42.792Z,99.90
2023-02-27T06:47:09.546Z,99.90
2023-02-27T06:49:36.314Z,99.90
2023-02-27T06:52:03.038Z,99.90
2023-02-27T06:54:29.742Z,99.90
2023-02-27T06:56:56.461Z,99.90
2023-02-27T06:59:23.156Z,99.90
2023-02-27T07:01:50.092Z,97.80
2023-02-27T07:04:17.646Z,68.60
2023-02-27T07:07:33.104Z,23.20
2023-02-27T07:09:31.630Z,6.40
2023-02-27T07:11:58.334Z,1.00
2023-02-27T07:14:26.019Z,1.00
2023-02-27T07:16:55.751Z,1.00
2023-02-27T07:19:23.603Z,1.00
2023-02-27T07:21:51.060Z,1.00
2023-02-27T07:24:17.899Z,1.00
2023-02-27T07:26:44.919Z,1.00
2023-02-27T07:29:11.674Z,1.00
2023-02-27T07:31:38.407Z,1.00
2023-02-27T07:34:05.203Z,1.00
2023-02-27T07:36:31.908Z,1.00
2023-02-27T07:38:58.759Z,1.00
2023-02-27T07:41:30.576Z,1.00
2023-02-27T07:43:57.844Z,1.00
2023-02-27T07:46:27.480Z,1.00
2023-02-27T07:48:55.052Z,1.00
2023-02-27T07:51:22.217Z,1.00
2023-02-27T07:53:48.983Z,1.00
2023-02-27T07:56:15.934Z,1.00
2023-02-27T07:58:42.696Z,1.00
2023-02-27T08:01:09.490Z,1.00
2023-02-27T08:03:36.340Z,1.00
2023-02-27T08:06:03.146Z,1.00
2023-02-27T08:08:30.011Z,1.00
2023-02-27T08:10:56.724Z,1.00
2023-02-27T08:13:42.477Z,99.90
2023-02-27T08:16:10.282Z,99.90
2023-02-27T08:29:32.970Z,99.90
2023-02-27T08:32:02.022Z,99.90
2023-02-27T08:34:30.222Z,99.90
2023-02-27T08:36:57.049Z,99.90
2023-02-27T08:39:24.355Z,99.90
2023-02-27T08:41:52.747Z,99.90
2023-02-27T08:44:20.164Z,99.90
2023-02-27T08:46:47.062Z,99.90
2023-02-27T08:49:13.840Z,99.90
2023-02-27T08:51:40.520Z,1.00
2023-02-27T08:54:07.296Z,1.00
2023-02-27T08:56:34.850Z,1.00
2023-02-27T08:59:02.519Z,1.00
2023-02-27T09:01:34.357Z,1.00
2023-02-27T09:04:05.130Z,1.00
2023-02-27T09:06:33.275Z,1.00
2023-02-27T09:09:00.307Z,1.00
2023-02-27T09:11:28.582Z,1.00
2023-02-27T09:13:55.599Z,1.00
2023-02-27T09:16:23.331Z,1.00
2023-02-27T09:18:50.723Z,1.00
2023-02-27T09:21:17.923Z,1.00
2023-02-27T09:23:44.701Z,1.00
2023-02-27T09:26:11.473Z,1.00
2023-02-27T09:28:40.090Z,1.00
2023-02-27T09:31:08.382Z,1.00
2023-02-27T09:33:37.400Z,1.00
2023-02-27T09:36:08.159Z,1.00
2023-02-27T09:38:35.629Z,1.00
2023-02-27T09:41:03.950Z,1.00
2023-02-27T09:43:51.610Z,1.00
2023-02-27T09:46:21.851Z,1.00
2023-02-27T09:49:00.986Z,1.00
2023-02-27T09:51:28.978Z,1.00
2023-02-27T09:53:59.739Z,1.00
2023-02-27T09:56:47.468Z,1.00
2023-02-27T09:59:27.982Z,1.00
2023-02-27T10:02:28.947Z,1.00
2023-02-27T10:05:37.906Z,1.00
2023-02-27T10:08:17.324Z,1.00
2023-02-27T10:11:04.997Z,1.00
2023-02-27T10:14:04.844Z,1.00
2023-02-27T10:16:34.231Z,1.00
2023-02-27T10:19:11.162Z,1.00
2023-02-27T10:21:42.854Z,1.00
2023-02-27T10:24:29.449Z,1.00
2023-02-27T10:26:58.699Z,1.00
2023-02-27T10:29:34.120Z,1.00
2023-02-27T10:32:12.694Z,1.00
2023-02-27T10:34:43.050Z,1.00
2023-02-27T10:37:14.764Z,1.00
2023-02-27T10:39:59.687Z,1.00
2023-02-27T10:42:30.752Z,1.00
2023-02-27T10:44:57.524Z,1.00
2023-02-27T10:47:26.017Z,1.00
2023-02-27T10:49:54.767Z,1.00
2023-02-27T10:52:21.802Z,99.90
2023-02-27T10:54:48.916Z,1.00
2023-02-27T10:57:25.482Z,99.90
2023-02-27T10:59:59.290Z,99.90
2023-02-27T11:02:39.750Z,99.90
2023-02-27T11:05:32.171Z,99.90
2023-02-27T11:08:14.266Z,99.90
2023-02-27T11:10:54.606Z,99.90
2023-02-27T11:13:25.546Z,1.00
2023-02-27T11:16:16.837Z,99.90
2023-02-27T11:18:49.714Z,99.90
2023-02-27T11:21:30.279Z,99.90
2023-02-27T11:24:07.713Z,99.90
2023-02-27T11:26:40.484Z,99.90
2023-02-27T11:29:19.163Z,99.90
2023-02-27T11:32:02.305Z,99.90
2023-02-27T11:34:29.052Z,99.90
2023-02-27T11:37:07.992Z,99.90
2023-02-27T11:39:39.249Z,99.90
2023-02-27T11:42:17.279Z,99.90
2023-02-27T11:44:55.257Z,99.90
2023-02-27T11:47:31.339Z,99.90
2023-02-27T11:50:16.407Z,99.90
2023-02-27T11:52:55.636Z,99.90
2023-02-27T11:55:27.865Z,99.90
2023-02-27T11:58:04.880Z,99.90
2023-02-27T12:00:39.454Z,99.90
2023-02-27T12:03:25.314Z,99.90
2023-02-27T12:05:56.141Z,99.90
2023-02-27T12:08:28.453Z,99.90
2023-02-27T12:11:13.838Z,99.90
2023-02-27T12:13:46.934Z,99.90
2023-02-27T12:16:48.356Z,99.90
2023-02-27T12:19:35.436Z,99.90
2023-02-27T12:22:13.352Z,99.90
2023-02-27T12:25:26.387Z,99.90
2023-02-27T12:28:20.367Z,99.90
2023-02-27T12:31:12.036Z,99.90
2023-02-27T12:33:49.909Z,99.90
2023-02-27T12:36:16.990Z,99.90
2023-02-27T12:38:44.127Z,99.90
2023-02-27T12:41:27.398Z,99.90
2023-02-27T12:44:11.521Z,99.90
2023-02-27T12:46:56.000Z,99.90
2023-02-27T12:49:41.229Z,99.90
2023-02-27T12:52:36.204Z,99.90
2023-02-27T12:55:41.717Z,99.90
2023-02-27T12:58:31.433Z,99.90
2023-02-27T13:01:40.211Z,99.90
2023-02-27T13:04:46.096Z,99.90
2023-02-27T13:07:27.405Z,99.90
2023-02-27T13:10:01.234Z,99.90
2023-02-27T13:12:56.730Z,99.90
2023-02-27T13:15:46.520Z,99.90
2023-02-27T13:18:32.035Z,99.90
2023-02-27T13:21:30.997Z,99.90
2023-02-27T13:24:29.109Z,99.90
2023-02-27T13:30:02.477Z,99.90
2023-02-27T13:32:53.017Z,99.90
2023-02-27T13:35:28.222Z,99.90
2023-02-27T13:38:01.611Z,99.90
2023-02-27T13:40:34.645Z,99.90
2023-02-27T13:43:05.080Z,99.90
2023-02-27T13:45:50.656Z,99.90
2023-02-27T13:48:35.777Z,99.90
2023-02-27T13:51:02.603Z,99.90
2023-02-27T13:53:29.997Z,99.90
2023-02-27T13:56:22.106Z,99.90
2023-02-27T13:58:49.852Z,99.90
2023-02-27T14:01:28.225Z,99.90
2023-02-27T14:03:59.415Z,99.90
2023-02-27T14:06:28.442Z,99.90
2023-02-27T14:09:08.849Z,99.90
2023-02-27T14:11:51.086Z,99.90
2023-02-27T14:14:47.314Z,99.90
2023-02-27T14:17:37.141Z,99.90
2023-02-27T14:20:06.732Z,99.90
2023-02-27T14:22:42.164Z,99.90
2023-02-27T14:25:33.590Z,99.90
2023-02-27T14:28:02.284Z,99.90
2023-02-27T14:30:41.120Z,99.90
2023-02-27T14:33:16.702Z,99.90
2023-02-27T14:35:46.857Z,99.90
2023-02-27T14:38:19.255Z,99.90
2023-02-27T14:41:22.331Z,99.90
2023-02-27T14:43:57.624Z,99.90
2023-02-27T14:46:32.005Z,99.90
2023-02-27T14:49:02.748Z,99.90
2023-02-27T14:51:34.951Z,99.90
2023-02-27T14:54:04.515Z,99.90
2023-02-27T14:56:32.581Z,99.90
2023-02-27T14:59:04.804Z,99.90
2023-02-27T15:01:35.437Z,99.90
2023-02-27T15:04:04.375Z,99.90
2023-02-27T15:06:40.736Z,99.90
2023-02-27T15:09:07.813Z,99.90
2023-02-27T15:11:34.884Z,99.90
2023-02-27T15:14:04.706Z,99.90
2023-02-27T15:16:36.271Z,99.90
2023-02-27T15:19:12.132Z,99.90
2023-02-27T15:21:42.775Z,99.90
2023-02-27T15:24:24.361Z,99.90
2023-02-27T15:26:57.112Z,99.90
2023-02-27T15:29:33.741Z,99.90
2023-02-27T15:32:01.247Z,99.90
2023-02-27T15:34:29.716Z,99.90
2023-02-27T15:36:57.789Z,99.90
2023-02-27T15:39:27.342Z,99.90
2023-02-27T15:42:01.973Z,99.90
2023-02-27T15:44:46.010Z,99.90
2023-02-27T15:47:21.440Z,99.90
2023-02-27T15:49:50.178Z,99.90
2023-02-27T15:52:23.708Z,99.90
2023-02-27T15:54:54.889Z,99.90
2023-02-27T15:57:24.083Z,99.90
2023-02-27T15:59:52.343Z,99.90
2023-02-27T16:02:30.014Z,99.90
2023-02-27T16:04:57.863Z,99.90
2023-02-27T16:07:26.078Z,99.90
2023-02-27T16:10:06.151Z,99.90
2023-02-27T16:12:37.108Z,99.90
2023-02-27T16:15:29.366Z,99.90
2023-02-27T16:18:08.834Z,99.90
2023-02-27T16:20:40.021Z,99.90
2023-02-27T16:23:22.095Z,99.90
2023-02-27T16:26:20.970Z,99.90
2023-02-27T16:28:55.221Z,99.90
2023-02-27T16:31:34.862Z,99.90
2023-02-27T16:34:13.803Z,99.90
2023-02-27T16:36:42.098Z,99.90
2023-02-27T16:39:13.232Z,99.90
2023-02-27T16:41:40.124Z,99.90
2023-02-27T16:44:06.824Z,99.90
2023-02-27T16:46:33.590Z,99.90
2023-02-27T16:49:14.147Z,99.90
2023-02-27T16:51:45.736Z,99.90
2023-02-27T16:54:13.775Z,99.90
2023-02-27T16:56:40.951Z,99.90
2023-02-27T16:59:15.746Z,99.90
2023-02-27T17:01:42.787Z,99.90
2023-02-27T17:04:24.716Z,99.90
2023-02-27T17:06:52.821Z,99.90
2023-02-27T17:09:19.829Z,99.90
2023-02-27T17:11:46.675Z,99.90
2023-02-27T17:14:13.420Z,99.90
2023-02-27T17:16:40.162Z,99.90
2023-02-27T17:19:06.915Z,99.90
2023-02-27T17:21:34.946Z,99.90
2023-02-27T17:24:01.792Z,99.90
2023-02-27T17:26:29.047Z,99.90
2023-02-27T17:28:56.466Z,99.90
2023-02-27T17:31:24.165Z,99.90
2023-02-27T17:33:54.954Z,99.90
2023-02-27T17:36:22.409Z,99.90
2023-02-27T17:38:54.500Z,99.90
2023-02-27T17:41:21.230Z,99.90
2023-02-27T17:43:55.924Z,99.90
2023-02-27T17:46:27.588Z,99.90
2023-02-27T17:48:56.284Z,99.90
2023-02-27T17:51:23.132Z,99.90
2023-02-27T17:53:49.868Z,99.90
2023-02-27T17:56:16.565Z,99.90
2023-02-27T17:58:45.556Z,99.90
2023-02-27T18:01:21.575Z,99.90
2023-02-27T18:03:49.470Z,99.90
2023-02-27T18:06:16.401Z,99.90
2023-02-27T18:08:43.515Z,99.90
2023-02-27T18:11:12.411Z,99.90
2023-02-27T18:13:39.855Z,99.90
2023-02-27T18:16:07.168Z,99.90
2023-02-27T18:18:38.637Z,99.90
2023-02-27T18:21:16.793Z,99.90
2023-02-27T18:23:44.313Z,99.90
2023-02-27T18:26:28.471Z,99.90
2023-02-27T18:29:00.193Z,99.90
2023-02-27T18:31:30.730Z,99.90
2023-02-27T18:33:57.509Z,99.90
2023-02-27T18:36:24.793Z,99.90
2023-02-27T18:38:51.528Z,99.90
2023-02-27T18:41:18.466Z,99.90
2023-02-27T18:43:45.326Z,99.90
2023-02-27T18:46:12.951Z,99.90
2023-02-27T18:48:40.840Z,99.90
2023-02-27T18:51:12.319Z,99.90
2023-02-27T18:53:40.725Z,99.90
2023-02-27T18:56:08.968Z,99.90
2023-02-27T18:58:36.530Z,99.90
2023-02-27T19:01:04.159Z,99.90
2023-02-27T19:03:31.569Z,99.90
2023-02-27T19:05:58.440Z,99.90
2023-02-27T19:08:29.019Z,99.90
2023-02-27T19:10:56.555Z,99.90
2023-02-27T19:13:24.090Z,99.90
2023-02-27T19:15:50.869Z,99.90
2023-02-27T19:18:17.776Z,99.90
2023-02-27T19:20:44.735Z,99.90
2023-02-27T19:23:11.718Z,99.90
2023-02-27T19:25:38.426Z,99.90
2023-02-27T19:28:06.424Z,99.90
2023-02-27T19:30:33.354Z,99.90
2023-02-27T19:33:00.122Z,99.90
2023-02-27T19:35:27.122Z,99.90
2023-02-27T19:37:58.144Z,99.90
2023-02-27T19:40:26.246Z,99.90
2023-02-27T19:42:53.000Z,99.90
2023-02-27T19:45:19.950Z,99.90
2023-02-27T19:47:47.030Z,99.90
2023-02-27T19:50:14.031Z,99.90
2023-02-27T19:52:40.902Z,99.90
2023-02-27T19:55:08.857Z,99.90
2023-02-27T19:57:36.979Z,99.90
2023-02-27T20:00:09.907Z,99.90
2023-02-27T20:02:36.697Z,99.90
2023-02-27T20:05:03.599Z,99.90
2023-02-27T20:07:34.659Z,99.90
2023-02-27T20:10:01.474Z,99.90
2023-02-27T20:12:28.648Z,99.90
2023-02-27T20:15:06.670Z,99.90
2023-02-27T20:17:33.364Z,99.90
2023-02-27T20:20:00.540Z,99.90
2023-02-27T20:22:27.776Z,99.90
2023-02-27T20:24:57.646Z,99.90
2023-02-27T20:27:28.604Z,99.90
2023-02-27T20:29:56.032Z,99.90
2023-02-27T20:32:24.151Z,99.90
2023-02-27T20:34:53.690Z,99.90
2023-02-27T20:37:22.282Z,99.90
2023-02-27T20:39:49.693Z,99.90
2023-02-27T20:42:16.500Z,99.90
2023-02-27T20:44:47.246Z,99.90
2023-02-27T20:47:14.007Z,99.90
2023-02-27T20:49:40.748Z,99.90
2023-02-27T20:52:07.435Z,99.90
2023-02-27T20:54:34.195Z,99.90
2023-02-27T20:57:01.052Z,99.90
2023-02-27T20:59:27.948Z,99.90
2023-02-27T21:01:55.084Z,99.90
2023-02-27T21:04:42.476Z,99.90
2023-02-27T21:07:15.010Z,99.90
2023-02-27T21:09:46.973Z,99.90
2023-02-27T21:12:14.217Z,99.90
2023-02-27T21:14:44.325Z,99.90
2023-02-27T21:17:11.472Z,99.90
2023-02-27T21:19:39.878Z,99.90
2023-02-27T21:22:10.887Z,99.90
2023-02-27T21:24:37.803Z,99.90
2023-02-27T21:27:04.592Z,99.90
2023-02-27T21:29:31.719Z,99.90
2023-02-27T21:31:58.587Z,99.90
2023-02-27T21:34:27.771Z,99.90
2023-02-27T21:36:55.193Z,99.90
2023-02-27T21:39:25.833Z,99.90
2023-02-27T21:41:53.049Z,99.90
2023-02-27T21:44:24.996Z,99.90
2023-02-27T21:46:53.075Z,99.90
2023-02-27T21:49:22.844Z,99.90
2023-02-27T21:51:49.808Z,99.90
2023-02-27T21:54:20.519Z,99.90
2023-02-27T21:56:48.409Z,99.90
2023-02-27T21:59:16.363Z,99.90
2023-02-27T22:01:47.472Z,99.90
2023-02-27T22:04:16.596Z,99.90
2023-02-27T22:06:43.649Z,99.90
2023-02-27T22:09:10.466Z,99.90
2023-02-27T22:11:37.443Z,99.90
2023-02-27T22:14:06.631Z,99.90
2023-02-27T22:16:34.286Z,99.90
2023-02-27T22:19:08.672Z,99.90
2023-02-27T22:21:36.709Z,99.90
2023-02-27T22:24:04.433Z,99.90
2023-02-27T22:26:32.201Z,99.90
2023-02-27T22:28:59.765Z,99.90
2023-02-27T22:31:30.170Z,99.90
2023-02-27T22:34:02.064Z,99.90
2023-02-27T22:36:30.488Z,99.90
2023-02-27T22:38:57.958Z,99.90
2023-02-27T22:41:30.833Z,99.90
2023-02-27T22:43:59.039Z,99.90
2023-02-27T22:46:28.307Z,99.90
2023-02-27T22:49:04.619Z,99.90
2023-02-27T22:51:37.304Z,99.90
2023-02-27T22:54:05.546Z,99.90
2023-02-27T22:56:33.338Z,99.90
2023-02-27T22:59:00.557Z,99.90
2023-02-27T23:01:30.050Z,99.90
2023-02-27T23:03:59.498Z,99.90
2023-02-27T23:06:32.430Z,99.90
2023-02-27T23:09:04.152Z,99.90
2023-02-27T23:11:33.670Z,99.90
2023-02-27T23:14:00.629Z,99.90
2023-02-27T23:16:27.795Z,99.90
2023-02-27T23:18:57.342Z,99.90
2023-02-27T23:21:29.983Z,99.90
2023-02-27T23:23:59.722Z,99.90
2023-02-27T23:26:29.495Z,99.90
2023-02-27T23:28:56.752Z,99.90
2023-02-27T23:31:23.913Z,99.90
2023-02-27T23:33:50.748Z,99.90
2023-02-27T23:36:17.794Z,99.90
2023-02-27T23:38:46.662Z,99.90
2023-02-27T23:41:17.363Z,99.90
2023-02-27T23:43:45.106Z,99.90
2023-02-27T23:46:15.187Z,99.90
2023-02-27T23:48:42.775Z,99.90
2023-02-27T23:51:10.904Z,99.90
2023-02-27T23:53:40.365Z,99.90
2023-02-27T23:56:19.070Z,99.90
2023-02-27T23:58:46.936Z,99.90
